Doniphan, Missouri
Current Conditions -  °F | °C
As of 10:35 AM on Wednesday 22 Oct 2014 (Local Time) from K4M9 Reporting Station
Clear Clear  
Wind Chill: 57°   Ceiling: Unl
Heat Index: 57°   Visibility: 7mi
Dew Point: 46°   Wind: 8mph
Humidity: 67%   Direction: 50°NE
Pressure: 30.31"   Gusts: NA
Location:  36.62°N, 90.82°W
Report Text: K4M9 221535Z AUTO 05007KT 7SM CLR 14/08 A3031 RMK AO2
Loading
Personal Weather Stations






























Interactive Weather Map
Tropical Storm Tracking
New forecast layout! Learn more

10-Day Weather Forecast

Advertisements
Track Severe Weather on mobile